Language selection

Features

My Weather Profile Weather Topics  | 

Coats - northern half: Past 24 Hour Conditions

 

Coral Harbour Airport

11:00 AM EST 19 November 2019
Disclaimer

This table is a summary of hourly weather conditions for the past 24 hours.
Please note that these observations might not always be representative of weather conditions over their associated marine area.

Date / Time
(EST)
Wind(knots) Conditions Visibility(km) Pressure(kPa) Air tempC) Relative humidity(%) Dew pointC) Wind Chill
19 November 2019
11:00 N 11 Light Snow 24 101.5 -13 81 -15 -21
10:00 N 11 Light Snow 24 101.5 -14 82 -16 -22
9:00 NE 4 Ice Crystals 24 101.5 -18 85 -20 -24
8:00 N 10 Light Snow 24 101.4 -19 81 -22 -29
7:00 NNW 16 Light Snow 24 101.4 -19 81 -22 -31
6:00 NNW 17 Light Snow 24 101.3 -19 80 -21 -31
5:00 NNW 12 Light Snow 24 101.3 -20 79 -22 -31
4:00 NNW 18 Light Snow 24 101.2 -18 80 -21 -31
3:00 NNW 15 Light Snow 24 101.2 -17 79 -20 -29
2:00 NNW 13 Light Snow 24 101.2 -15 79 -18 -25
1:00 NNW 16 Light Snow 24 101.1 -14 80 -16 -24
0:00 N 14 Light Snow 24 101.0 -13 81 -15 -22
18 November 2019
23:00 NNW 15 Light Snow 24 101.0 -12 84 -15 -22
22:00 NNW 14 Light Snow 24 101.0 -12 82 -14 -21
21:00 NNW 12 Light Snow 24 100.9 -11 83 -14 -20
20:00 NNW 11 Light Snow 24 100.9 -11 81 -14 -19
19:00 NW 11 Light Snow 24 100.9 -11 83 -14 -20
18:00 N 14 Light Snow 24 100.8 -11 82 -14 -21
17:00 N 15 Light Snow 24 100.8 -12 82 -14 -22
16:00 N 15 Light Snow 24 100.7 -13 82 -16 -23
15:00 NNW 14 Light Snow 24 100.7 -14 81 -17 -24
14:00 NNW 13 Light Snow 24 100.6 -10 83 -12 -18
13:00 NNW 14 Light Snow 24 100.6 -10 83 -12 -19
12:00 NNW 15 Light Snow 24 100.5 -10 83 -12 -19
11:00 NW 12 gust 18 Light Snow 24 100.5 -11 84 -13 -20

Zoom-in to make a selection

Map of Hudson - Hudson Bay marine weather areas Arviat Airport Baker Lake Airport Chesterfield Inlet Airport Coral Harbour Airport Rankin Inlet Airport Sanikiluaq Airport Whale Cove Airport Cape Dorset Airport Iqaluit Airport Wager Bay Kimmirut Airport Churchill Airport Fort Severn Airport Peawanuck Airport Moosonee Airport Eastmain Airport La Grande Rivière Airport Waskaganish Airport Wemindji Airport Akulivik Airport Inukjuak Airport Ivujivik Airport Kuujjuarapik Airport Puvirnituq Airport Umiujaq Airport Aupaluk Airport Kangiqsujuaq Airport Kangirsuk Airport Kangiqsualujjuaq Airport Kuujjuaq Airport Quaqtaq Airport Salluit Airport Tasiujaq Airport Cape Kakkiviak
Legend:
buoy Buoy
land station Land Station

Hudson - Hudson Bay Area

Another Region

What we are doing

Date modified: